Time;durP1;ratioP1;P1;durP2;ratioP2;P2;SDS_P1;SDS_P2;PMS_P1;PMS_P2;Temp;Humidity;BMP_temperature;BMP_pressure;BME280_temperature;BME280_humidity;BME280_pressure;Samples;Min_cycle;Max_cycle;Signal;HPM_P1;HPM_P2
2024/03/07 00:02:21;;;;;;;0.20;0.20;;;;;;;10.79;65.55;101361.69;7363758;19;20002;-62
2024/03/07 00:04:46;;;;;;;0.10;0.10;;;;;;;10.80;65.26;101353.84;7369128;19;20003;-62
2024/03/07 00:07:12;;;;;;;0.10;0.10;;;;;;;10.79;65.46;101348.63;7365932;19;19999;-62
2024/03/07 00:09:37;;;;;;;0.10;0.10;;;;;;;10.78;65.33;101354.72;7365310;19;20007;-63
2024/03/07 00:12:04;;;;;;;0.10;0.10;;;;;;;10.80;65.07;101361.69;7365048;19;20344;-62
2024/03/07 00:14:31;;;;;;;0.10;0.10;;;;;;;10.80;65.59;101364.28;7367463;19;20010;-63
2024/03/07 00:16:59;;;;;;;0.10;0.10;;;;;;;10.81;65.22;101347.72;7371821;19;20351;-63
2024/03/07 00:19:26;;;;;;;0.10;0.10;;;;;;;10.72;65.57;101340.00;7362324;19;20010;-63
2024/03/07 00:21:54;;;;;;;;;;;;;;;10.85;65.47;101356.41;7369184;19;20018;-63
2024/03/07 00:24:20;;;;;;;0.10;0.10;;;;;;;10.81;65.08;101359.94;7368708;19;19914;-62
2024/03/07 00:26:46;;;;;;;0.10;0.10;;;;;;;10.80;65.21;101358.22;7368658;19;20014;-62
2024/03/07 00:29:11;;;;;;;0.10;0.10;;;;;;;10.74;65.46;101347.81;7370325;19;20014;-62
2024/03/07 00:31:37;;;;;;;0.10;0.10;;;;;;;10.69;65.50;101339.16;7370425;19;20014;-63
2024/03/07 00:34:02;;;;;;;0.10;0.10;;;;;;;10.76;65.51;101361.75;7369823;19;20007;-62
2024/03/07 00:36:27;;;;;;;0.10;0.10;;;;;;;10.74;66.01;101358.25;7366547;19;20009;-62
2024/03/07 00:38:53;;;;;;;0.10;0.10;;;;;;;10.72;65.40;101362.66;7368285;19;19998;-62
2024/03/07 00:41:20;;;;;;;0.10;0.10;;;;;;;10.69;66.19;101360.06;7364594;19;20011;-62
2024/03/07 00:43:46;;;;;;;0.10;0.10;;;;;;;10.55;65.88;101348.06;7369964;19;20006;-63
2024/03/07 00:46:11;;;;;;;0.10;0.10;;;;;;;10.62;66.38;101360.16;7363489;19;19999;-62
2024/03/07 00:48:37;;;;;;;0.10;0.10;;;;;;;10.61;66.00;101362.78;7366470;19;19994;-63
2024/03/07 00:51:04;;;;;;;0.10;0.10;;;;;;;10.59;66.34;101360.22;7367124;19;20039;-63
2024/03/07 00:53:29;;;;;;;0.03;0.03;;;;;;;10.59;66.15;101365.44;7366564;19;20013;-62
2024/03/07 00:55:55;;;;;;;0.10;0.10;;;;;;;10.47;66.51;101338.59;7366566;19;20006;-63
2024/03/07 00:58:20;;;;;;;0.10;0.10;;;;;;;10.56;66.33;101355.00;7357356;19;20462;-63
2024/03/07 01:00:46;;;;;;;0.10;0.10;;;;;;;10.56;66.43;101352.41;7371894;19;20007;-63
2024/03/07 01:03:13;;;;;;;0.10;0.10;;;;;;;10.56;66.54;101349.78;7368283;19;20006;-63
2024/03/07 01:05:39;;;;;;;;;;;;;;;10.60;66.15;101346.25;7369016;19;20003;-63
2024/03/07 01:08:05;;;;;;;0.10;0.10;;;;;;;10.54;65.98;101346.34;7369913;19;19914;-63
2024/03/07 01:10:31;;;;;;;0.10;0.10;;;;;;;10.55;65.92;101342.84;7367413;19;20086;-63
2024/03/07 01:13:01;;;;;;;0.10;0.10;;;;;;;10.55;66.36;101353.28;7366805;19;20770;-62
2024/03/07 01:15:26;;;;;;;0.10;0.10;;;;;;;10.54;66.44;101346.34;7367127;19;20009;-62
2024/03/07 01:17:52;;;;;;;0.00;0.00;;;;;;;10.54;66.21;101345.44;7366220;19;19998;-63
2024/03/07 01:20:17;;;;;;;0.10;0.10;;;;;;;10.55;66.10;101357.66;7365556;19;20110;-63
2024/03/07 01:22:43;;;;;;;0.10;0.10;;;;;;;10.54;66.24;101351.56;7367629;19;20340;-63
2024/03/07 01:25:08;;;;;;;0.00;0.00;;;;;;;10.53;65.86;101355.03;7366522;19;20014;-63
2024/03/07 01:27:33;;;;;;;0.10;0.10;;;;;;;10.52;65.83;101363.75;7364481;19;20095;-63
2024/03/07 01:29:59;;;;;;;0.00;0.00;;;;;;;10.42;66.16;101343.00;7368538;19;20021;-63
2024/03/07 01:32:24;;;;;;;0.10;0.10;;;;;;;10.44;66.01;101349.94;7363342;19;20014;-63
2024/03/07 01:34:50;;;;;;;0.00;0.00;;;;;;;10.49;65.66;101353.38;7367064;19;20007;-62
2024/03/07 01:37:15;;;;;;;0.10;0.10;;;;;;;10.48;65.26;101346.41;7362791;19;20059;-63
2024/03/07 01:39:40;;;;;;;0.13;0.13;;;;;;;10.46;65.24;101353.41;7366060;19;19998;-62
2024/03/07 01:42:08;;;;;;;0.10;0.10;;;;;;;10.39;65.17;101338.66;7363625;19;19998;-63
2024/03/07 01:44:33;;;;;;;0.05;0.05;;;;;;;10.36;65.60;101341.31;7367704;19;20040;-62
2024/03/07 01:47:03;;;;;;;0.10;0.10;;;;;;;10.43;65.37;101345.59;7365739;19;20475;-63
2024/03/07 01:49:30;;;;;;;0.10;0.10;;;;;;;10.44;65.28;101349.94;7367253;19;20011;-63
2024/03/07 01:51:56;;;;;;;0.10;0.10;;;;;;;10.35;65.69;101334.38;7367532;19;20237;-65
2024/03/07 01:54:23;;;;;;;0.10;0.10;;;;;;;10.32;65.75;101329.19;7361030;19;20034;-62
2024/03/07 01:56:48;;;;;;;0.10;0.10;;;;;;;10.40;66.23;101343.03;7367036;19;20021;-65
2024/03/07 01:59:15;;;;;;;0.10;0.10;;;;;;;10.27;65.84;101342.28;7361478;19;20462;-63
2024/03/07 02:01:40;;;;;;;0.10;0.10;;;;;;;10.38;65.92;101345.63;7368365;19;20025;-62
2024/03/07 02:04:06;;;;;;;0.10;0.10;;;;;;;10.37;65.81;101349.13;7363377;19;20002;-63
2024/03/07 02:06:33;;;;;;;0.10;0.10;;;;;;;10.37;65.61;101349.13;7368109;19;20007;-62
2024/03/07 02:08:58;;;;;;;0.10;0.10;;;;;;;10.38;65.68;101336.94;7360872;19;20006;-62
2024/03/07 02:11:24;;;;;;;0.10;0.10;;;;;;;10.35;65.90;101343.06;7367805;19;20413;-62
2024/03/07 02:13:49;;;;;;;0.10;0.10;;;;;;;10.27;65.65;101330.97;7364331;19;19999;-63
2024/03/07 02:16:15;;;;;;;0.10;0.10;;;;;;;10.34;65.68;101338.75;7367370;19;20430;-63
2024/03/07 02:18:40;;;;;;;0.00;0.00;;;;;;;10.35;66.04;101342.22;7360848;19;20014;-63
2024/03/07 02:21:08;;;;;;;0.10;0.10;;;;;;;10.36;65.55;101346.56;7368102;19;20007;-63
2024/03/07 02:23:34;;;;;;;0.10;0.10;;;;;;;10.35;65.85;101340.47;7360723;19;19998;-63
2024/03/07 02:26:00;;;;;;;0.10;0.10;;;;;;;10.35;65.36;101339.59;7366139;19;20498;-63
2024/03/07 02:28:25;;;;;;;0.10;0.10;;;;;;;10.36;65.80;101341.31;7364039;19;20860;-62
2024/03/07 02:30:51;;;;;;;0.20;0.20;;;;;;;10.36;65.85;101347.41;7366037;19;20101;-63
2024/03/07 02:33:16;;;;;;;0.10;0.10;;;;;;;10.37;65.70;101337.84;7359556;19;20018;-63
2024/03/07 02:35:42;;;;;;;0.10;0.10;;;;;;;10.36;65.60;101346.56;7366796;19;20010;-63
2024/03/07 02:38:08;;;;;;;0.03;0.03;;;;;;;10.37;66.10;101337.84;7365020;19;19994;-63
2024/03/07 02:40:34;;;;;;;0.10;0.10;;;;;;;10.38;65.82;101344.78;7363749;19;20010;-63
2024/03/07 02:42:59;;;;;;;0.10;0.10;;;;;;;10.29;66.15;101327.50;7366462;19;20010;-63
2024/03/07 02:45:25;;;;;;;0.10;0.10;;;;;;;10.35;66.14;101344.81;7358862;19;20030;-63
2024/03/07 02:47:51;;;;;;;0.10;0.10;;;;;;;10.39;65.87;101347.38;7369277;19;20026;-62
2024/03/07 02:50:17;;;;;;;0.10;0.10;;;;;;;10.20;65.58;101316.25;7363488;19;20005;-63
2024/03/07 02:52:43;;;;;;;0.05;0.05;;;;;;;10.39;66.13;101342.16;7366892;19;20490;-63
2024/03/07 02:55:10;;;;;;;0.10;0.10;;;;;;;10.39;65.53;101341.28;7364077;19;20018;-63
2024/03/07 02:57:36;;;;;;;0.10;0.10;;;;;;;10.40;65.64;101343.03;7365244;19;20007;-63
2024/03/07 03:00:03;;;;;;;0.10;0.10;;;;;;;10.42;65.77;101341.25;7357438;19;20533;-63
2024/03/07 03:02:28;;;;;;;0.10;0.10;;;;;;;10.22;65.66;101307.50;7361257;19;20721;-63
2024/03/07 03:04:54;;;;;;;0.10;0.10;;;;;;;10.42;65.62;101343.88;7362793;19;20094;-63
2024/03/07 03:07:20;;;;;;;0.10;0.10;;;;;;;10.43;66.01;101345.59;7365803;19;20062;-63
2024/03/07 03:09:45;;;;;;;0.10;0.10;;;;;;;10.45;65.84;101351.66;7364047;19;20082;-63
2024/03/07 03:12:11;;;;;;;0.00;0.00;;;;;;;10.47;65.92;101339.44;7366823;19;20010;-62
2024/03/07 03:14:36;;;;;;;0.10;0.10;;;;;;;10.49;65.55;101336.81;7364749;19;20403;-63
2024/03/07 03:17:02;;;;;;;0.20;0.20;;;;;;;10.49;65.97;101340.31;7361016;19;20010;-63
2024/03/07 03:19:28;;;;;;;0.10;0.10;;;;;;;10.49;65.99;101339.41;7363021;19;20006;-63
2024/03/07 03:21:55;;;;;;;0.10;0.10;;;;;;;10.41;65.96;101329.09;7363656;19;20013;-64
2024/03/07 03:24:21;;;;;;;0.00;0.00;;;;;;;10.51;65.74;101329.84;7360977;19;20002;-63
2024/03/07 03:26:46;;;;;;;0.10;0.10;;;;;;;10.48;65.88;101325.50;7363280;19;19998;-62
2024/03/07 03:29:13;;;;;;;0.10;0.10;;;;;;;10.50;66.18;101333.34;7364507;19;19995;-63
2024/03/07 03:31:39;;;;;;;0.10;0.10;;;;;;;10.38;66.35;101308.22;7358905;19;20591;-63
2024/03/07 03:34:05;;;;;;;0.10;0.10;;;;;;;10.49;66.13;101328.97;7366493;19;20042;-63
2024/03/07 03:36:30;;;;;;;0.10;0.10;;;;;;;10.48;66.15;101335.94;7365083;19;20535;-63
2024/03/07 03:38:56;;;;;;;0.10;0.10;;;;;;;10.47;66.15;101333.38;7365550;19;20017;-64
2024/03/07 03:41:22;;;;;;;0.10;0.10;;;;;;;10.45;66.60;101340.38;7369794;19;20009;-63
2024/03/07 03:43:48;;;;;;;0.10;0.10;;;;;;;10.44;66.86;101326.44;7370683;19;20006;-62
2024/03/07 03:46:14;;;;;;;0.10;0.10;;;;;;;10.42;66.80;101325.59;7362802;19;20010;-62
2024/03/07 03:48:40;;;;;;;0.00;0.00;;;;;;;10.41;67.23;101323.88;7366061;19;20011;-62
2024/03/07 03:51:09;;;;;;;0.00;0.00;;;;;;;10.42;67.11;101320.38;7367450;19;20014;-62
2024/03/07 03:53:36;;;;;;;0.10;0.10;;;;;;;10.22;67.16;101291.00;7365933;19;20007;-62
2024/03/07 03:56:04;;;;;;;0.10;0.10;;;;;;;10.35;67.06;101316.97;7368473;19;20006;-63
2024/03/07 03:58:30;;;;;;;0.10;0.10;;;;;;;10.33;66.76;101317.84;7366405;19;20006;-62
2024/03/07 04:00:55;;;;;;;0.10;0.10;;;;;;;10.30;67.16;101324.00;7368844;19;20518;-63
2024/03/07 04:03:21;;;;;;;0.10;0.10;;;;;;;10.29;67.21;101318.75;7371980;19;19999;-63
2024/03/07 04:05:46;;;;;;;0.10;0.10;;;;;;;10.26;67.43;101319.69;7370860;19;19994;-63
2024/03/07 04:08:12;;;;;;;0.05;0.05;;;;;;;10.23;67.19;101324.03;7350377;19;20481;-63
2024/03/07 04:10:38;;;;;;;0.10;0.10;;;;;;;10.23;67.02;101339.69;7371673;19;19999;-63
2024/03/07 04:13:04;;;;;;;0.10;0.10;;;;;;;10.20;66.97;101335.38;7372206;19;20012;-63
2024/03/07 04:15:31;;;;;;;0.10;0.10;;;;;;;10.20;66.99;101339.75;7328439;19;19998;-63
2024/03/07 04:17:57;;;;;;;0.10;0.10;;;;;;;10.18;67.42;101341.50;7368075;19;20043;-63
2024/03/07 04:20:22;;;;;;;0.10;0.10;;;;;;;10.09;67.10;101338.13;7360226;19;20010;-62
2024/03/07 04:22:51;;;;;;;0.10;0.10;;;;;;;9.92;67.36;101307.84;7372251;19;20013;-62
2024/03/07 04:25:16;;;;;;;0.10;0.10;;;;;;;10.13;66.91;101345.00;7368059;19;20130;-62
2024/03/07 04:27:42;;;;;;;0.10;0.10;;;;;;;10.10;66.86;101345.06;7369402;19;20094;-63
2024/03/07 04:30:09;;;;;;;0.10;0.10;;;;;;;10.09;67.06;101338.13;7370059;19;20014;-62
2024/03/07 04:32:37;;;;;;;0.10;0.10;;;;;;;10.08;66.81;101341.59;7365428;19;20029;-62
2024/03/07 04:35:04;;;;;;;0.17;0.17;;;;;;;9.91;66.79;101317.41;7368181;19;20026;-63
2024/03/07 04:37:29;;;;;;;0.10;0.10;;;;;;;9.97;66.97;101333.00;7366699;19;20006;-62
2024/03/07 04:39:55;;;;;;;0.10;0.10;;;;;;;10.02;67.35;101331.22;7369542;19;20347;-63
2024/03/07 04:42:21;;;;;;;0.10;0.10;;;;;;;10.03;66.66;101337.28;7370696;19;20014;-63
2024/03/07 04:44:46;;;;;;;0.10;0.10;;;;;;;10.01;67.32;101334.72;7370229;19;20009;-63
2024/03/07 04:47:12;;;;;;;0.10;0.10;;;;;;;10.01;66.75;101339.94;7371047;19;20021;-63
2024/03/07 04:49:37;;;;;;;0.10;0.10;;;;;;;10.00;67.02;101342.56;7363367;19;20011;-62
2024/03/07 04:52:04;;;;;;;0.10;0.10;;;;;;;9.98;66.69;101339.94;7368817;19;20022;-62
2024/03/07 04:54:31;;;;;;;0.00;0.00;;;;;;;9.98;66.62;101355.59;7369843;19;20731;-62
2024/03/07 04:56:57;;;;;;;0.00;0.00;;;;;;;9.95;67.13;101347.81;7370132;19;20039;-63
2024/03/07 04:59:22;;;;;;;0.10;0.10;;;;;;;9.93;66.82;101341.72;7367368;19;19998;-63
2024/03/07 05:01:52;;;;;;;0.10;0.10;;;;;;;9.93;66.71;101352.16;7370131;19;20462;-62
2024/03/07 05:04:18;;;;;;;0.00;0.00;;;;;;;9.90;66.47;101357.44;7368104;19;20794;-62
2024/03/07 05:06:44;;;;;;;0.10;0.10;;;;;;;9.75;66.45;101326.28;7370379;19;20069;-63
2024/03/07 05:09:21;;;;;;;0.10;0.10;;;;;;;9.90;66.64;101361.78;7368851;19;19999;-62
2024/03/07 05:11:47;;;;;;;0.10;0.10;;;;;;;9.88;66.96;101352.25;7368112;19;20994;-63
2024/03/07 05:14:12;;;;;;;0.10;0.10;;;;;;;9.88;66.82;101353.97;7368082;19;20074;-63
2024/03/07 05:16:37;;;;;;;0.10;0.10;;;;;;;9.89;66.79;101360.94;7367940;19;20003;-63
2024/03/07 05:19:05;;;;;;;0.03;0.03;;;;;;;9.90;67.00;101364.41;7364653;19;20006;-63
2024/03/07 05:21:37;;;;;;;0.00;0.00;;;;;;;9.91;66.80;101374.81;7364781;19;20021;-63
2024/03/07 05:24:03;;;;;;;0.10;0.10;;;;;;;9.91;67.10;101374.81;7367560;19;20023;-62
2024/03/07 05:26:37;;;;;;;0.10;0.10;;;;;;;9.78;67.08;101357.53;7367170;19;20526;-62
2024/03/07 05:29:07;;;;;;;0.00;0.00;;;;;;;9.92;67.41;101381.75;7366867;19;20093;-62
2024/03/07 05:31:37;;;;;;;0.10;0.10;;;;;;;9.76;67.11;101352.34;7367908;19;20078;-62
2024/03/07 05:34:04;;;;;;;0.10;0.10;;;;;;;9.88;67.20;101380.94;7367534;19;21183;-63
2024/03/07 05:36:32;;;;;;;0.10;0.10;;;;;;;9.82;66.99;101364.47;7362927;19;20017;-62
2024/03/07 05:38:59;;;;;;;0.10;0.10;;;;;;;9.94;66.98;101390.44;7367017;19;20478;-62
2024/03/07 05:41:28;;;;;;;0.10;0.10;;;;;;;9.96;67.29;101395.66;7366501;19;20017;-62
2024/03/07 05:43:54;;;;;;;0.10;0.10;;;;;;;9.97;66.88;101384.31;7365419;19;20010;-62
2024/03/07 05:46:20;;;;;;;0.10;0.10;;;;;;;9.99;67.28;101393.88;7366398;19;20012;-63
2024/03/07 05:48:50;;;;;;;0.10;0.10;;;;;;;10.01;67.15;101396.47;7368195;19;20014;-63
2024/03/07 05:51:15;;;;;;;0.10;0.10;;;;;;;10.00;66.81;101389.53;7368150;19;20006;-62
2024/03/07 05:53:41;;;;;;;0.00;0.00;;;;;;;10.02;66.96;101398.19;7365929;19;20352;-62
2024/03/07 05:56:07;;;;;;;0.03;0.03;;;;;;;10.05;66.77;101398.19;7364095;19;20061;-62
2024/03/07 05:58:33;;;;;;;0.10;0.10;;;;;;;10.06;66.77;101394.69;7361947;19;20018;-63
2024/03/07 06:00:58;;;;;;;0.10;0.10;;;;;;;10.06;67.21;101398.16;7362067;19;20006;-63
2024/03/07 06:03:25;;;;;;;0.10;0.10;;;;;;;10.09;66.51;101390.31;7366902;19;20026;-62
2024/03/07 06:05:51;;;;;;;0.10;0.10;;;;;;;10.10;66.63;101399.00;7363765;19;20002;-62
2024/03/07 06:08:18;;;;;;;0.10;0.10;;;;;;;10.11;66.77;101388.53;7365732;19;20014;-62
2024/03/07 06:10:44;;;;;;;0.10;0.10;;;;;;;10.12;66.15;101386.78;7366709;19;20849;-63
2024/03/07 06:13:15;;;;;;;0.00;0.00;;;;;;;10.14;66.55;101391.13;7363295;19;20010;-63
2024/03/07 06:15:44;;;;;;;0.10;0.10;;;;;;;10.14;66.62;101388.53;7361606;19;19999;-62
2024/03/07 06:18:10;;;;;;;0.10;0.10;;;;;;;10.14;66.63;101393.72;7367434;19;20002;-62
2024/03/07 06:20:37;;;;;;;0.10;0.10;;;;;;;10.13;66.72;101384.16;7361446;19;20002;-63
2024/03/07 06:23:05;;;;;;;0.10;0.10;;;;;;;10.15;66.42;101384.16;7366397;19;20011;-63
2024/03/07 06:25:37;;;;;;;0.10;0.10;;;;;;;10.17;66.19;101386.75;7362871;19;20637;-63
2024/03/07 06:28:09;;;;;;;0.10;0.10;;;;;;;10.17;66.22;101386.75;7361832;19;20006;-62
2024/03/07 06:30:39;;;;;;;0.13;0.13;;;;;;;10.17;66.35;101390.22;7368138;19;20031;-62
2024/03/07 06:33:05;;;;;;;0.10;0.10;;;;;;;10.05;66.21;101375.56;7361221;19;20019;-62
2024/03/07 06:35:30;;;;;;;0.10;0.10;;;;;;;10.12;66.27;101394.63;7360619;19;20002;-62
2024/03/07 06:37:56;;;;;;;0.10;0.10;;;;;;;10.06;66.02;101379.03;7363918;19;20002;-63
2024/03/07 06:40:22;;;;;;;0.10;0.10;;;;;;;10.08;65.64;101385.94;7363239;19;20010;-62
2024/03/07 06:42:48;;;;;;;0.10;0.10;;;;;;;10.07;65.84;101394.66;7365821;19;20006;-62
2024/03/07 06:45:13;;;;;;;0.10;0.10;;;;;;;9.97;65.86;101374.75;7365052;19;20474;-62
2024/03/07 06:47:39;;;;;;;0.13;0.13;;;;;;;9.98;65.48;101391.25;7367944;19;20030;-62
2024/03/07 06:50:08;;;;;;;0.10;0.10;;;;;;;9.97;65.64;101394.75;7361916;19;20006;-62
2024/03/07 06:52:34;;;;;;;0.10;0.10;;;;;;;9.87;65.48;101383.53;7363250;19;20003;-63
2024/03/07 06:54:59;;;;;;;0.10;0.10;;;;;;;9.90;65.76;101407.00;7362546;19;20007;-62
2024/03/07 06:57:25;;;;;;;0.10;0.10;;;;;;;9.69;65.94;101368.06;7361985;19;20428;-63
2024/03/07 06:59:50;;;;;;;0.10;0.10;;;;;;;9.80;65.80;101400.13;7357709;19;20041;-62
2024/03/07 07:02:15;;;;;;;0.10;0.10;;;;;;;9.78;65.75;101404.47;7364924;19;20694;-62
2024/03/07 07:04:44;;;;;;;0.10;0.10;;;;;;;9.75;66.02;101408.00;7365388;19;19994;-62
2024/03/07 07:07:12;;;;;;;0.10;0.10;;;;;;;9.58;66.34;101379.44;7364097;19;20038;-62
2024/03/07 07:09:38;;;;;;;0.10;0.10;;;;;;;9.71;66.71;101400.19;7364109;19;20006;-63
2024/03/07 07:12:04;;;;;;;0.10;0.10;;;;;;;9.70;67.03;101401.09;7367012;19;20018;-63
2024/03/07 07:14:29;;;;;;;0.10;0.10;;;;;;;9.57;66.45;101375.09;7372760;19;20012;-63
2024/03/07 07:16:55;;;;;;;0.10;0.10;;;;;;;9.67;66.49;101390.66;7370266;19;19991;-62
2024/03/07 07:19:22;;;;;;;0.10;0.10;;;;;;;9.66;66.79;101394.16;7370788;19;20006;-62
2024/03/07 07:21:49;;;;;;;0.10;0.10;;;;;;;9.65;66.92;101398.50;7372556;19;20835;-63
2024/03/07 07:24:15;;;;;;;0.10;0.10;;;;;;;9.64;67.13;101396.78;7372579;19;20493;-62
2024/03/07 07:26:40;;;;;;;0.10;0.10;;;;;;;9.64;66.82;101396.78;7372169;19;20090;-62
2024/03/07 07:29:06;;;;;;;0.10;0.10;;;;;;;9.55;66.94;101381.22;7364043;19;20002;-62
2024/03/07 07:31:32;;;;;;;0.10;0.10;;;;;;;9.66;67.36;101399.38;7368707;19;20027;-62
2024/03/07 07:33:58;;;;;;;0.10;0.10;;;;;;;9.67;67.21;101407.19;7369386;19;20017;-63
2024/03/07 07:36:23;;;;;;;0.10;0.10;;;;;;;9.54;67.44;101369.91;7367335;19;19995;-62
2024/03/07 07:38:48;;;;;;;0.10;0.10;;;;;;;9.71;66.79;101397.59;7370661;19;20431;-62
2024/03/07 07:41:14;;;;;;;0.10;0.10;;;;;;;9.72;67.17;101409.75;7368748;19;20466;-63
2024/03/07 07:43:40;;;;;;;0.10;0.10;;;;;;;9.75;67.19;101409.75;7366557;19;20453;-62
2024/03/07 07:46:06;;;;;;;0.10;0.10;;;;;;;9.75;67.14;101399.31;7370785;19;20893;-62
2024/03/07 07:48:32;;;;;;;0.10;0.10;;;;;;;9.79;66.96;101406.22;7369154;19;20007;-62
2024/03/07 07:50:57;;;;;;;0.10;0.10;;;;;;;9.80;67.25;101402.75;7372535;19;20003;-63
2024/03/07 07:53:23;;;;;;;0.10;0.10;;;;;;;9.85;67.44;101421.81;7370108;19;20090;-62
2024/03/07 07:55:48;;;;;;;0.10;0.10;;;;;;;9.86;66.86;101407.91;7369909;19;20006;-65
2024/03/07 07:58:14;;;;;;;0.10;0.10;;;;;;;9.88;66.77;101406.13;7368191;19;20046;-63
2024/03/07 08:00:42;;;;;;;0.10;0.10;;;;;;;9.90;66.70;101408.75;7368601;19;20014;-63
2024/03/07 08:03:09;;;;;;;0.10;0.10;;;;;;;9.90;66.96;101404.41;7370134;19;20006;-63
2024/03/07 08:05:36;;;;;;;0.10;0.10;;;;;;;9.93;66.85;101403.50;7370737;19;20010;-62
2024/03/07 08:08:04;;;;;;;0.10;0.10;;;;;;;9.93;67.04;101404.34;7369192;19;20007;-61
2024/03/07 08:10:30;;;;;;;0.10;0.10;;;;;;;9.97;67.08;101413.03;7368030;19;20007;-62
2024/03/07 08:13:00;;;;;;;0.10;0.10;;;;;;;10.00;67.20;101411.25;7369586;19;20728;-62
2024/03/07 08:15:27;;;;;;;0.10;0.10;;;;;;;9.99;66.83;101412.16;7369038;19;20762;-62
2024/03/07 08:17:56;;;;;;;0.10;0.10;;;;;;;10.02;67.09;101406.88;7370640;19;20352;-62
2024/03/07 08:20:23;;;;;;;0.00;0.00;;;;;;;10.04;66.75;101415.59;7365477;19;20002;-61
2024/03/07 08:22:52;;;;;;;0.10;0.10;;;;;;;10.07;66.68;101410.31;7368671;19;20835;-62
2024/03/07 08:25:20;;;;;;;0.10;0.10;;;;;;;10.09;66.58;101395.53;7362771;19;19999;-62
2024/03/07 08:27:48;;;;;;;0.10;0.10;;;;;;;9.98;66.85;101371.25;7370199;19;20010;-62
2024/03/07 08:30:14;;;;;;;0.08;0.08;;;;;;;10.11;66.53;101393.75;7367323;19;20010;-61
2024/03/07 08:32:44;;;;;;;0.10;0.10;;;;;;;10.08;66.77;101378.13;7342662;19;20014;-62
2024/03/07 08:35:09;;;;;;;0.10;0.10;;;;;;;10.17;66.90;101386.75;7362270;19;20015;-62
2024/03/07 08:37:57;;;;;;;0.05;0.05;;;;;;;10.28;66.79;101395.34;7366873;19;20002;-62
2024/03/07 08:40:24;;;;;;;0.00;0.00;;;;;;;10.27;66.36;101399.72;7365486;19;19998;-62
2024/03/07 08:42:51;;;;;;;0.10;0.10;;;;;;;10.32;66.14;101402.28;7370146;19;19999;-62
2024/03/07 08:45:18;;;;;;;0.10;0.10;;;;;;;10.27;65.88;101391.03;7365873;19;20392;-62
2024/03/07 08:47:48;;;;;;;0.10;0.10;;;;;;;10.34;66.19;101401.41;7369212;19;20034;-63
2024/03/07 08:50:17;;;;;;;0.10;0.10;;;;;;;10.39;66.05;101393.50;7367652;19;20042;-62
2024/03/07 08:52:44;;;;;;;0.10;0.10;;;;;;;10.36;66.12;101399.63;7367658;19;20006;-62
2024/03/07 08:55:12;;;;;;;0.10;0.10;;;;;;;10.41;65.49;101390.88;7363863;19;20093;-62
2024/03/07 08:57:38;;;;;;;0.10;0.10;;;;;;;10.41;65.73;101396.09;7367607;19;20015;-63
2024/03/07 09:00:08;;;;;;;0.10;0.10;;;;;;;10.21;65.86;101362.34;7366333;19;20454;-62
2024/03/07 09:02:38;;;;;;;0.10;0.10;;;;;;;10.47;66.27;101394.28;7367858;19;20017;-63
2024/03/07 09:05:04;;;;;;;0.10;0.10;;;;;;;10.49;65.65;101400.38;7369411;19;20129;-62
2024/03/07 09:07:29;;;;;;;0.10;0.10;;;;;;;10.54;65.77;101406.41;7365863;19;20026;-62
2024/03/07 09:09:55;;;;;;;0.10;0.10;;;;;;;10.36;65.48;101362.22;7364537;19;20478;-62
2024/03/07 09:12:21;;;;;;;0.10;0.10;;;;;;;10.62;66.01;101401.09;7365555;19;20071;-62
2024/03/07 09:14:46;;;;;;;0.10;0.10;;;;;;;10.65;65.70;101401.91;7366536;19;20125;-62
2024/03/07 09:17:12;;;;;;;0.13;0.13;;;;;;;10.69;65.52;101388.81;7364251;19;19999;-62
2024/03/07 09:19:38;;;;;;;0.10;0.10;;;;;;;10.76;65.65;101398.31;7366446;19;20012;-62
2024/03/07 09:22:03;;;;;;;0.10;0.10;;;;;;;10.68;65.30;101387.06;7363213;19;20045;-62
2024/03/07 09:24:30;;;;;;;0.10;0.10;;;;;;;10.80;65.32;101400.00;7367718;19;20013;-62
2024/03/07 09:26:56;;;;;;;0.10;0.10;;;;;;;10.82;64.94;101403.47;7366045;19;20003;-62
2024/03/07 09:29:22;;;;;;;0.10;0.10;;;;;;;10.78;65.16;101393.91;7367627;19;20487;-62
2024/03/07 09:31:51;;;;;;;0.10;0.10;;;;;;;10.89;64.98;101398.13;7367200;19;20053;-62
2024/03/07 09:34:18;;;;;;;0.10;0.10;;;;;;;10.91;64.55;101411.19;7365695;19;20005;-62
2024/03/07 09:36:44;;;;;;;0.10;0.10;;;;;;;10.88;64.96;101398.16;7367197;19;20041;-62
2024/03/07 09:39:12;;;;;;;0.00;0.00;;;;;;;10.99;64.70;101401.47;7368719;19;20501;-62
2024/03/07 09:41:39;;;;;;;0.10;0.10;;;;;;;10.98;64.69;101397.16;7364932;19;20002;-62
2024/03/07 09:44:05;;;;;;;0.10;0.10;;;;;;;11.08;64.69;101427.50;7368747;19;20006;-61
2024/03/07 09:46:31;;;;;;;0.10;0.10;;;;;;;11.08;63.64;101400.50;7366348;19;20017;-62
2024/03/07 09:48:58;;;;;;;0.10;0.10;;;;;;;11.13;63.79;101420.47;7366690;19;20003;-62
2024/03/07 09:51:24;;;;;;;0.10;0.10;;;;;;;11.18;64.79;101421.25;7366457;19;20013;-62
2024/03/07 09:53:52;;;;;;;0.10;0.10;;;;;;;11.27;63.46;101406.34;7367042;19;20010;-62
2024/03/07 09:56:21;;;;;;;0.10;0.10;;;;;;;11.34;63.69;101413.19;7364988;19;19998;-62
2024/03/07 09:58:49;;;;;;;0.10;0.10;;;;;;;11.42;63.81;101400.88;7369855;19;20754;-62
2024/03/07 10:01:16;;;;;;;0.10;0.10;;;;;;;11.43;63.31;101408.69;7356499;19;21081;-61
2024/03/07 10:03:44;;;;;;;0.10;0.10;;;;;;;11.50;63.65;101414.69;7365900;19;20332;-62
2024/03/07 10:06:11;;;;;;;0.10;0.10;;;;;;;11.57;63.46;101416.34;7366465;19;20003;-63
2024/03/07 10:08:36;;;;;;;0.10;0.10;;;;;;;11.53;63.28;101398.09;7366734;19;20011;-62
2024/03/07 10:11:02;;;;;;;0.10;0.10;;;;;;;11.59;62.77;101393.63;7367763;19;20056;-62
2024/03/07 10:13:28;;;;;;;0.20;0.20;;;;;;;11.73;62.53;101411.75;7365903;19;20803;-62
2024/03/07 10:15:59;;;;;;;0.10;0.10;;;;;;;11.71;62.25;101421.38;7368399;19;20605;-62
2024/03/07 10:18:27;;;;;;;0.10;0.10;;;;;;;11.69;62.20;101416.16;7364232;19;20038;-62
2024/03/07 10:20:55;;;;;;;0.10;0.10;;;;;;;11.73;62.41;101413.50;7367658;19;20402;-62
2024/03/07 10:23:22;;;;;;;0.10;0.10;;;;;;;11.72;62.09;101414.38;7363436;19;19999;-62
2024/03/07 10:25:47;;;;;;;0.10;0.10;;;;;;;11.72;62.37;101414.38;7363512;19;20021;-62
2024/03/07 10:28:14;;;;;;;0.10;0.10;;;;;;;11.73;62.68;101416.97;7363589;19;21122;-62
2024/03/07 10:30:46;;;;;;;0.10;0.10;;;;;;;11.75;63.11;101406.47;7364586;19;20010;-62
2024/03/07 10:33:12;;;;;;;0.10;0.10;;;;;;;11.78;62.16;101403.81;7365068;19;20022;-62
2024/03/07 10:35:38;;;;;;;0.10;0.10;;;;;;;11.81;62.21;101398.50;7364071;19;20393;-63
2024/03/07 10:38:06;;;;;;;0.10;0.10;;;;;;;11.82;62.22;101405.53;7366563;19;20537;-62
2024/03/07 10:40:32;;;;;;;0.10;0.10;;;;;;;11.81;62.19;101404.63;7364988;19;20104;-63
2024/03/07 10:43:02;;;;;;;0.10;0.10;;;;;;;11.81;62.06;101403.75;7365147;19;20006;-62
2024/03/07 10:45:30;;;;;;;0.10;0.10;;;;;;;11.83;62.34;101410.72;7364789;19;20026;-62
2024/03/07 10:47:56;;;;;;;0.10;0.10;;;;;;;11.87;61.91;101403.72;7371283;19;20006;-63
2024/03/07 10:50:42;;;;;;;0.10;0.10;;;;;;;11.93;62.37;101398.34;7372249;19;20105;-62
2024/03/07 10:53:32;;;;;;;0.10;0.10;;;;;;;12.09;62.24;101396.34;7373073;19;20900;-63
2024/03/07 10:56:15;;;;;;;0.10;0.10;;;;;;;12.19;62.32;101396.13;7372433;19;20539;-62
2024/03/07 10:59:02;;;;;;;0.10;0.10;;;;;;;12.32;63.14;101411.66;7373721;19;20017;-63
2024/03/07 11:01:34;;;;;;;0.13;0.13;;;;;;;12.52;61.23;101392.91;7371420;19;20014;-63
2024/03/07 11:04:04;;;;;;;0.08;0.08;;;;;;;12.63;60.83;101394.44;7374136;19;20010;-63
2024/03/07 11:06:30;;;;;;;0.20;0.20;;;;;;;12.75;60.15;101384.59;7366275;19;20042;-63
2024/03/07 11:08:57;;;;;;;0.10;0.10;;;;;;;12.86;59.37;101393.94;7369787;19;19995;-63
2024/03/07 11:11:24;;;;;;;0.10;0.10;;;;;;;12.87;59.24;101386.94;7372373;19;20018;-63
2024/03/07 11:13:53;;;;;;;0.10;0.10;;;;;;;12.96;58.70;101384.13;7369476;19;20415;-63
2024/03/07 11:16:20;;;;;;;0.10;0.10;;;;;;;13.01;60.04;101392.75;7370480;19;20014;-63
2024/03/07 11:19:24;;;;;;;0.20;0.20;;;;;;;13.15;61.29;101401.19;7367604;19;20359;-63
2024/03/07 11:21:50;;;;;;;0.10;0.10;;;;;;;13.21;58.97;101387.97;7369579;19;20018;-65
2024/03/07 11:24:29;;;;;;;0.10;0.10;;;;;;;13.38;60.29;101391.97;7371456;19;19995;-63
2024/03/07 11:26:56;;;;;;;0.13;0.13;;;;;;;13.44;59.16;101386.59;7369208;19;20033;-63